createdAt,value
2022-11-03T00:01:39.062Z,99632.94
2022-11-03T00:07:41.100Z,99637.09
2022-11-03T00:13:44.801Z,99628.25
2022-11-03T00:19:46.741Z,99628.72
2022-11-03T00:25:48.946Z,99614.09
2022-11-03T00:31:51.005Z,99613.47
2022-11-03T00:37:52.969Z,99606.81
2022-11-03T00:43:55.307Z,99598.75
2022-11-03T00:49:57.175Z,99600.66
2022-11-03T00:56:09.376Z,99592.00
2022-11-03T01:02:11.300Z,99586.13
2022-11-03T01:08:13.265Z,99574.50
2022-11-03T01:14:16.267Z,99569.47
2022-11-03T01:20:18.681Z,99565.00
2022-11-03T01:26:21.052Z,99557.19
2022-11-03T01:32:22.988Z,99555.84
2022-11-03T01:38:42.297Z,99551.34
2022-11-03T01:44:48.370Z,99542.69
2022-11-03T01:50:51.961Z,99525.38
2022-11-03T01:56:55.353Z,99512.56
2022-11-03T02:02:58.095Z,99479.38
2022-11-03T02:09:07.382Z,99475.06
2022-11-03T02:15:13.828Z,99464.25
2022-11-03T02:22:00.304Z,99460.81
2022-11-03T02:28:04.120Z,99461.63
2022-11-03T02:34:28.361Z,99460.97
2022-11-03T02:40:39.091Z,99457.66
2022-11-03T02:46:44.184Z,99459.94
2022-11-03T02:52:47.991Z,99453.66
2022-11-03T02:59:04.847Z,99448.97
2022-11-03T03:05:11.117Z,99446.28
2022-11-03T03:11:14.123Z,99436.97
2022-11-03T03:17:24.858Z,99439.53
2022-11-03T03:23:34.062Z,99437.63
2022-11-03T03:29:46.335Z,99439.28
2022-11-03T03:35:51.253Z,99422.56
2022-11-03T03:41:54.217Z,99413.47
2022-11-03T03:47:57.912Z,99404.34
2022-11-03T03:53:59.882Z,99390.78
2022-11-03T04:00:01.787Z,99396.84
2022-11-03T04:06:04.937Z,99385.94
2022-11-03T04:12:27.395Z,99363.28
2022-11-03T04:18:47.542Z,99355.25
2022-11-03T04:24:51.679Z,99350.41
2022-11-03T04:30:59.473Z,99340.31
2022-11-03T04:37:01.919Z,99322.31
2022-11-03T04:43:13.918Z,99330.09
2022-11-03T04:49:23.215Z,99325.56
2022-11-03T04:55:25.754Z,99320.06
2022-11-03T05:01:28.731Z,99317.69
2022-11-03T05:07:36.317Z,99316.50
2022-11-03T05:13:38.291Z,99314.97
2022-11-03T05:19:43.024Z,99314.78
2022-11-03T05:25:52.999Z,99302.75
2022-11-03T05:31:57.475Z,99295.28
2022-11-03T05:37:59.503Z,99288.88
2022-11-03T05:44:30.663Z,99284.56
2022-11-03T05:50:38.205Z,99275.88
2022-11-03T05:56:40.131Z,99293.38
2022-11-03T06:02:43.873Z,99288.47
2022-11-03T06:08:46.439Z,99286.16
2022-11-03T06:28:30.388Z,99280.34
2022-11-03T06:34:50.183Z,99269.06
2022-11-03T06:40:53.474Z,99278.03
2022-11-03T06:47:21.538Z,99269.75
2022-11-03T06:53:31.783Z,99276.22
2022-11-03T06:59:33.664Z,99260.88
2022-11-03T07:05:36.113Z,99267.59
2022-11-03T07:11:46.151Z,99258.91
2022-11-03T07:17:48.468Z,99253.56
2022-11-03T07:23:50.506Z,99248.34
2022-11-03T07:29:58.446Z,99238.94
2022-11-03T07:36:16.849Z,99223.03
2022-11-03T07:42:24.509Z,99221.63
2022-11-03T07:48:39.806Z,99195.69
2022-11-03T07:54:41.841Z,99192.44
2022-11-03T08:00:43.796Z,99176.31
2022-11-03T08:06:46.060Z,99166.53
2022-11-03T08:12:47.987Z,99165.03
2022-11-03T08:25:02.943Z,99145.53
2022-11-03T08:31:09.427Z,99133.22
2022-11-03T08:37:14.344Z,99134.09
2022-11-03T08:43:16.254Z,99138.72
2022-11-03T08:49:18.213Z,99121.03
2022-11-03T08:55:20.262Z,99103.72
2022-11-03T09:01:22.217Z,99108.03
2022-11-03T09:07:24.255Z,99099.19
2022-11-03T09:13:26.394Z,99086.97
2022-11-03T09:19:28.292Z,99091.34
2022-11-03T09:25:30.325Z,99078.91
2022-11-03T09:31:32.756Z,99070.16
2022-11-03T09:37:34.734Z,99060.25
2022-11-03T09:43:36.634Z,99051.81
2022-11-03T09:49:38.611Z,99048.47
2022-11-03T09:55:40.907Z,99043.09
2022-11-03T10:01:45.892Z,99036.22
2022-11-03T10:07:48.208Z,99019.56
2022-11-03T10:13:56.003Z,99006.28
2022-11-03T10:19:58.768Z,98982.66
2022-11-03T10:26:18.623Z,98976.06
2022-11-03T10:32:33.566Z,98979.03
2022-11-03T10:38:36.684Z,98962.53
2022-11-03T10:44:38.630Z,98973.81
2022-11-03T10:50:41.330Z,98961.66
2022-11-03T10:56:45.085Z,98940.50
2022-11-03T11:02:49.006Z,98942.31
2022-11-03T11:08:59.623Z,98928.38
2022-11-03T11:15:07.329Z,98922.84
2022-11-03T11:21:19.212Z,98913.47
2022-11-03T11:27:35.852Z,98897.19
2022-11-03T11:33:37.767Z,98869.09
2022-11-03T11:39:44.155Z,98856.91
2022-11-03T11:46:23.092Z,98841.91
2022-11-03T11:52:25.034Z,98818.84
2022-11-03T11:58:42.644Z,98796.34
2022-11-03T12:04:47.770Z,98788.44
2022-11-03T12:10:54.991Z,98780.75
2022-11-03T12:16:59.716Z,98760.78
2022-11-03T12:23:01.612Z,98745.56
2022-11-03T12:29:05.845Z,98728.94
2022-11-03T12:35:09.795Z,98713.72
2022-11-03T12:41:24.768Z,98708.56
2022-11-03T12:47:26.686Z,98699.88
2022-11-03T12:53:28.574Z,98686.59
2022-11-03T12:59:30.587Z,98675.66
2022-11-03T13:05:32.499Z,98652.88
2022-11-03T13:11:52.731Z,98641.19
2022-11-03T13:24:16.573Z,98624.16
2022-11-03T13:30:18.607Z,98620.53
2022-11-03T13:36:23.674Z,98591.84
2022-11-03T13:42:25.634Z,98591.59
2022-11-03T14:01:11.833Z,98587.06
2022-11-03T14:07:13.971Z,98560.50
2022-11-03T14:13:15.955Z,98554.44
2022-11-03T14:19:17.903Z,98541.28
2022-11-03T14:25:20.428Z,98523.75
2022-11-03T14:31:22.368Z,98498.44
2022-11-03T14:37:25.525Z,98477.47
2022-11-03T14:43:33.241Z,98480.44
2022-11-03T14:49:37.227Z,98458.28
2022-11-03T14:55:39.145Z,98431.38
2022-11-03T15:01:41.358Z,98426.16
2022-11-03T15:07:43.367Z,98435.44
2022-11-03T15:13:47.217Z,98421.53
2022-11-03T15:19:51.797Z,98395.81
2022-11-03T15:25:53.733Z,98384.56
2022-11-03T15:31:55.632Z,98383.78
2022-11-03T15:38:00.655Z,98373.94
2022-11-03T15:44:02.570Z,98369.41
2022-11-03T15:50:06.770Z,98370.94
2022-11-03T15:56:08.783Z,98368.94
2022-11-03T16:02:35.063Z,98369.28
2022-11-03T16:08:32.873Z,98353.63
2022-11-03T16:14:34.867Z,98341.13
2022-11-03T16:20:36.750Z,98333.81
2022-11-03T16:26:38.768Z,98335.75
2022-11-03T16:32:40.695Z,98330.47
2022-11-03T16:38:42.727Z,98314.19
2022-11-03T16:44:44.836Z,98293.19
2022-11-03T16:50:46.784Z,98291.91
2022-11-03T17:03:04.779Z,98272.97
2022-11-03T17:09:07.009Z,98249.50
2022-11-03T17:15:09.498Z,98248.81
2022-11-03T17:21:11.538Z,98231.06
2022-11-03T17:27:16.972Z,98217.63
2022-11-03T17:33:19.673Z,98210.22
2022-11-03T17:39:38.135Z,98194.97
2022-11-03T17:46:20.369Z,98207.22
2022-11-03T17:52:30.604Z,98197.91
2022-11-03T17:58:36.136Z,98191.13
2022-11-03T18:04:38.111Z,98192.28
2022-11-03T18:10:46.476Z,98186.59
2022-11-03T18:16:53.473Z,98173.94
2022-11-03T18:23:17.123Z,98167.53
2022-11-03T18:29:19.425Z,98155.84
2022-11-03T18:35:31.460Z,98147.78
2022-11-03T18:41:36.660Z,98133.53
2022-11-03T18:47:38.589Z,98142.16
2022-11-03T18:53:59.450Z,98111.94
2022-11-03T19:00:02.132Z,98114.25
2022-11-03T19:06:05.079Z,98094.47
2022-11-03T19:12:09.798Z,98099.03
2022-11-03T19:18:13.890Z,98078.06
2022-11-03T19:24:15.787Z,98061.13
2022-11-03T19:30:19.877Z,98048.97
2022-11-03T19:36:21.979Z,98034.25
2022-11-03T19:42:36.780Z,98023.00
2022-11-03T19:48:39.304Z,98021.16
2022-11-03T19:54:48.711Z,98020.72
2022-11-03T20:00:58.131Z,98004.72
2022-11-03T20:07:04.861Z,97986.19
2022-11-03T20:13:19.913Z,97983.94
2022-11-03T20:19:22.305Z,97973.47
2022-11-03T20:25:28.022Z,97982.25
2022-11-03T20:31:30.138Z,97989.41
2022-11-03T20:37:32.759Z,97969.69
2022-11-03T20:43:47.148Z,97987.19
2022-11-03T20:49:49.180Z,97975.00
2022-11-03T20:55:52.755Z,97983.03
2022-11-03T21:01:54.833Z,97984.09
2022-11-03T21:07:56.935Z,97985.63
2022-11-03T21:14:18.839Z,97985.03
2022-11-03T21:20:20.769Z,97989.34
2022-11-03T21:26:22.723Z,98003.28
2022-11-03T21:32:24.691Z,98001.13
2022-11-03T21:38:26.635Z,97994.31
2022-11-03T21:44:28.607Z,97983.50
2022-11-03T21:50:30.485Z,97975.09
2022-11-03T21:56:32.503Z,97963.38
2022-11-03T22:02:34.398Z,97941.03
2022-11-03T22:08:37.810Z,97934.56
2022-11-03T22:14:57.950Z,97924.22
2022-11-03T22:21:18.409Z,97917.41
2022-11-03T22:27:20.889Z,97901.94
2022-11-03T22:33:22.876Z,97906.66
2022-11-03T22:39:43.185Z,97909.50
2022-11-03T22:45:51.361Z,97881.34
2022-11-03T22:51:53.374Z,97875.97
2022-11-03T22:57:55.517Z,97870.72
2022-11-03T23:03:58.918Z,97875.00
2022-11-03T23:10:04.812Z,97871.16
2022-11-03T23:16:22.671Z,97857.47
2022-11-03T23:22:24.583Z,97851.91
2022-11-03T23:28:26.514Z,97836.56
2022-11-03T23:34:28.897Z,97835.66
2022-11-03T23:40:33.332Z,97850.56
2022-11-03T23:46:54.017Z,97848.69
2022-11-03T23:52:55.930Z,97831.16
2022-11-03T23:58:58.179Z,97823.19
